Duluth, Minnesota
Current Conditions -  °F | °C
As of 9:55 AM on Tuesday 21 Oct 2014 (Local Time) from KDLH Reporting Station
Overcast Overcast  
Wind Chill: 36°   Ceiling: 1600
Heat Index: 42°   Visibility: 10mi
Dew Point: 33°   Wind: 10mph
Humidity: 70%   Direction: 120°ESE
Pressure: 30.23"   Gusts: NA
Location:  46.79°N, 92.09°W
Report Text: KDLH 211455Z 12009KT 10SM OVC016 06/01 A3023 RMK AO2 SLP249 T00560006 53012
Loading
Personal Weather Stations






























Interactive Weather Map New forecast layout! Learn more

10-Day Weather Forecast

Advertisements
Track Severe Weather on mobile